sensor_id;sensor_type;location;lat;lon;timestamp;temperature;humidity
51007;DHT22;37034;47.886;-3.904;2023-12-14T00:02:02;11.10;99.90
51007;DHT22;37034;47.886;-3.904;2023-12-14T00:04:28;11.10;99.90
51007;DHT22;37034;47.886;-3.904;2023-12-14T00:06:53;11.00;99.90
51007;DHT22;37034;47.886;-3.904;2023-12-14T00:09:19;11.00;99.90
51007;DHT22;37034;47.886;-3.904;2023-12-14T00:11:45;10.90;99.90
51007;DHT22;37034;47.886;-3.904;2023-12-14T00:14:11;10.90;99.90
51007;DHT22;37034;47.886;-3.904;2023-12-14T00:16:36;10.90;99.90
51007;DHT22;37034;47.886;-3.904;2023-12-14T00:19:02;10.90;99.90
51007;DHT22;37034;47.886;-3.904;2023-12-14T00:21:28;10.90;99.90
51007;DHT22;37034;47.886;-3.904;2023-12-14T00:23:53;10.90;99.90
51007;DHT22;37034;47.886;-3.904;2023-12-14T00:26:19;10.90;99.90
51007;DHT22;37034;47.886;-3.904;2023-12-14T00:28:45;10.90;99.90
51007;DHT22;37034;47.886;-3.904;2023-12-14T00:31:10;10.80;99.90
51007;DHT22;37034;47.886;-3.904;2023-12-14T00:33:36;10.90;99.90
51007;DHT22;37034;47.886;-3.904;2023-12-14T00:36:01;10.90;99.90
51007;DHT22;37034;47.886;-3.904;2023-12-14T00:38:27;10.90;99.90
51007;DHT22;37034;47.886;-3.904;2023-12-14T00:40:53;10.80;99.90
51007;DHT22;37034;47.886;-3.904;2023-12-14T00:43:18;10.80;99.90
51007;DHT22;37034;47.886;-3.904;2023-12-14T00:45:44;10.80;99.90
51007;DHT22;37034;47.886;-3.904;2023-12-14T00:48:11;10.80;99.90
51007;DHT22;37034;47.886;-3.904;2023-12-14T00:50:36;10.80;99.90
51007;DHT22;37034;47.886;-3.904;2023-12-14T00:53:02;10.80;99.90
51007;DHT22;37034;47.886;-3.904;2023-12-14T00:55:28;10.80;99.90
51007;DHT22;37034;47.886;-3.904;2023-12-14T00:57:53;10.80;99.90
51007;DHT22;37034;47.886;-3.904;2023-12-14T01:00:19;10.80;99.90
51007;DHT22;37034;47.886;-3.904;2023-12-14T01:02:44;10.80;99.90
51007;DHT22;37034;47.886;-3.904;2023-12-14T01:05:10;10.80;99.90
51007;DHT22;37034;47.886;-3.904;2023-12-14T01:07:36;10.80;99.90
51007;DHT22;37034;47.886;-3.904;2023-12-14T01:10:02;10.80;99.90
51007;DHT22;37034;47.886;-3.904;2023-12-14T01:12:28;10.80;99.90
51007;DHT22;37034;47.886;-3.904;2023-12-14T01:14:53;10.80;99.90
51007;DHT22;37034;47.886;-3.904;2023-12-14T01:17:19;10.80;99.90
51007;DHT22;37034;47.886;-3.904;2023-12-14T01:19:44;10.80;99.90
51007;DHT22;37034;47.886;-3.904;2023-12-14T01:22:10;10.70;99.90
51007;DHT22;37034;47.886;-3.904;2023-12-14T01:24:36;10.80;99.90
51007;DHT22;37034;47.886;-3.904;2023-12-14T01:27:02;10.80;99.90
51007;DHT22;37034;47.886;-3.904;2023-12-14T01:29:28;10.80;99.90
51007;DHT22;37034;47.886;-3.904;2023-12-14T01:31:53;10.80;99.90
51007;DHT22;37034;47.886;-3.904;2023-12-14T01:34:19;10.80;99.90
51007;DHT22;37034;47.886;-3.904;2023-12-14T01:36:44;10.80;99.90
51007;DHT22;37034;47.886;-3.904;2023-12-14T01:39:10;10.80;99.90
51007;DHT22;37034;47.886;-3.904;2023-12-14T01:41:36;10.80;99.90
51007;DHT22;37034;47.886;-3.904;2023-12-14T01:44:02;10.90;99.90
51007;DHT22;37034;47.886;-3.904;2023-12-14T01:46:27;10.90;99.90
51007;DHT22;37034;47.886;-3.904;2023-12-14T01:48:53;10.90;99.90
51007;DHT22;37034;47.886;-3.904;2023-12-14T01:51:19;10.90;99.90
51007;DHT22;37034;47.886;-3.904;2023-12-14T01:53:45;10.90;99.90
51007;DHT22;37034;47.886;-3.904;2023-12-14T01:56:10;10.80;99.90
51007;DHT22;37034;47.886;-3.904;2023-12-14T01:58:36;10.80;99.90
51007;DHT22;37034;47.886;-3.904;2023-12-14T02:03:45;10.70;99.90
51007;DHT22;37034;47.886;-3.904;2023-12-14T02:06:11;10.70;99.90
51007;DHT22;37034;47.886;-3.904;2023-12-14T02:08:37;10.70;99.90
51007;DHT22;37034;47.886;-3.904;2023-12-14T02:11:02;10.70;99.90
51007;DHT22;37034;47.886;-3.904;2023-12-14T02:13:28;10.70;99.90
51007;DHT22;37034;47.886;-3.904;2023-12-14T02:15:54;10.70;99.90
51007;DHT22;37034;47.886;-3.904;2023-12-14T02:18:19;10.70;99.90
51007;DHT22;37034;47.886;-3.904;2023-12-14T02:20:45;10.70;99.90
51007;DHT22;37034;47.886;-3.904;2023-12-14T02:23:11;10.70;99.90
51007;DHT22;37034;47.886;-3.904;2023-12-14T02:25:36;10.70;99.90
51007;DHT22;37034;47.886;-3.904;2023-12-14T02:28:02;10.70;99.90
51007;DHT22;37034;47.886;-3.904;2023-12-14T02:30:28;10.70;99.90
51007;DHT22;37034;47.886;-3.904;2023-12-14T02:32:53;10.70;99.90
51007;DHT22;37034;47.886;-3.904;2023-12-14T02:35:19;10.60;99.90
51007;DHT22;37034;47.886;-3.904;2023-12-14T02:37:45;10.60;99.90
51007;DHT22;37034;47.886;-3.904;2023-12-14T02:40:11;10.60;99.90
51007;DHT22;37034;47.886;-3.904;2023-12-14T02:42:37;10.50;99.90
51007;DHT22;37034;47.886;-3.904;2023-12-14T02:45:03;10.50;99.90
51007;DHT22;37034;47.886;-3.904;2023-12-14T02:47:29;10.60;99.90
51007;DHT22;37034;47.886;-3.904;2023-12-14T02:49:55;10.60;99.90
51007;DHT22;37034;47.886;-3.904;2023-12-14T02:52:21;10.60;99.90
51007;DHT22;37034;47.886;-3.904;2023-12-14T02:54:47;10.60;99.90
51007;DHT22;37034;47.886;-3.904;2023-12-14T02:57:12;10.50;99.90
51007;DHT22;37034;47.886;-3.904;2023-12-14T02:59:39;10.50;99.90
51007;DHT22;37034;47.886;-3.904;2023-12-14T03:02:05;10.40;99.90
51007;DHT22;37034;47.886;-3.904;2023-12-14T03:04:30;10.30;99.90
51007;DHT22;37034;47.886;-3.904;2023-12-14T03:06:56;10.30;99.90
51007;DHT22;37034;47.886;-3.904;2023-12-14T03:09:22;10.30;99.90
51007;DHT22;37034;47.886;-3.904;2023-12-14T03:11:48;10.40;99.90
51007;DHT22;37034;47.886;-3.904;2023-12-14T03:14:13;10.30;99.90
51007;DHT22;37034;47.886;-3.904;2023-12-14T03:16:39;10.30;99.90
51007;DHT22;37034;47.886;-3.904;2023-12-14T03:19:05;10.20;99.90
51007;DHT22;37034;47.886;-3.904;2023-12-14T03:21:31;10.20;99.90
51007;DHT22;37034;47.886;-3.904;2023-12-14T03:23:56;10.20;99.90
51007;DHT22;37034;47.886;-3.904;2023-12-14T03:26:22;10.20;99.90
51007;DHT22;37034;47.886;-3.904;2023-12-14T03:28:47;10.20;99.90
51007;DHT22;37034;47.886;-3.904;2023-12-14T03:31:13;10.20;99.90
51007;DHT22;37034;47.886;-3.904;2023-12-14T03:33:40;10.20;99.90
51007;DHT22;37034;47.886;-3.904;2023-12-14T03:36:06;10.20;99.90
51007;DHT22;37034;47.886;-3.904;2023-12-14T03:38:33;10.20;99.90
51007;DHT22;37034;47.886;-3.904;2023-12-14T03:40:58;10.20;99.90
51007;DHT22;37034;47.886;-3.904;2023-12-14T03:43:24;10.20;99.90
51007;DHT22;37034;47.886;-3.904;2023-12-14T03:45:50;10.10;99.90
51007;DHT22;37034;47.886;-3.904;2023-12-14T03:48:15;10.10;99.90
51007;DHT22;37034;47.886;-3.904;2023-12-14T03:50:41;10.10;99.90
51007;DHT22;37034;47.886;-3.904;2023-12-14T03:53:07;10.10;99.90
51007;DHT22;37034;47.886;-3.904;2023-12-14T03:55:33;10.00;99.90
51007;DHT22;37034;47.886;-3.904;2023-12-14T03:57:59;10.00;99.90
51007;DHT22;37034;47.886;-3.904;2023-12-14T04:00:25;10.00;99.90
51007;DHT22;37034;47.886;-3.904;2023-12-14T04:02:51;9.90;99.90
51007;DHT22;37034;47.886;-3.904;2023-12-14T04:05:17;10.00;99.90
51007;DHT22;37034;47.886;-3.904;2023-12-14T04:07:42;10.00;99.90
51007;DHT22;37034;47.886;-3.904;2023-12-14T04:10:09;10.00;99.90
51007;DHT22;37034;47.886;-3.904;2023-12-14T04:12:35;10.00;99.90
51007;DHT22;37034;47.886;-3.904;2023-12-14T04:15:03;10.10;99.90
51007;DHT22;37034;47.886;-3.904;2023-12-14T04:17:30;10.10;99.90
51007;DHT22;37034;47.886;-3.904;2023-12-14T04:19:56;10.10;99.90
51007;DHT22;37034;47.886;-3.904;2023-12-14T04:22:21;10.20;99.90
51007;DHT22;37034;47.886;-3.904;2023-12-14T04:24:47;10.20;99.90
51007;DHT22;37034;47.886;-3.904;2023-12-14T04:27:14;10.20;99.90
51007;DHT22;37034;47.886;-3.904;2023-12-14T04:29:39;10.20;99.90
51007;DHT22;37034;47.886;-3.904;2023-12-14T04:32:05;10.20;99.90
51007;DHT22;37034;47.886;-3.904;2023-12-14T04:34:31;10.20;99.90
51007;DHT22;37034;47.886;-3.904;2023-12-14T04:36:57;10.30;99.90
51007;DHT22;37034;47.886;-3.904;2023-12-14T04:39:26;10.30;99.90
51007;DHT22;37034;47.886;-3.904;2023-12-14T04:41:52;10.30;99.90
51007;DHT22;37034;47.886;-3.904;2023-12-14T04:44:21;10.30;99.90
51007;DHT22;37034;47.886;-3.904;2023-12-14T04:46:50;10.40;99.90
51007;DHT22;37034;47.886;-3.904;2023-12-14T04:49:16;10.40;99.90
51007;DHT22;37034;47.886;-3.904;2023-12-14T04:51:42;10.40;99.90
51007;DHT22;37034;47.886;-3.904;2023-12-14T04:54:08;10.40;99.90
51007;DHT22;37034;47.886;-3.904;2023-12-14T04:56:34;10.50;99.90
51007;DHT22;37034;47.886;-3.904;2023-12-14T04:59:00;10.50;99.90
51007;DHT22;37034;47.886;-3.904;2023-12-14T05:01:25;10.60;99.90
51007;DHT22;37034;47.886;-3.904;2023-12-14T05:03:54;10.60;99.90
51007;DHT22;37034;47.886;-3.904;2023-12-14T05:06:20;10.60;99.90
51007;DHT22;37034;47.886;-3.904;2023-12-14T05:08:46;10.60;99.90
51007;DHT22;37034;47.886;-3.904;2023-12-14T05:11:15;10.60;99.90
51007;DHT22;37034;47.886;-3.904;2023-12-14T05:13:40;10.60;99.90
51007;DHT22;37034;47.886;-3.904;2023-12-14T05:16:07;10.70;99.90
51007;DHT22;37034;47.886;-3.904;2023-12-14T05:18:37;10.70;99.90
51007;DHT22;37034;47.886;-3.904;2023-12-14T05:21:03;10.70;99.90
51007;DHT22;37034;47.886;-3.904;2023-12-14T05:23:29;10.80;99.90
51007;DHT22;37034;47.886;-3.904;2023-12-14T05:25:54;10.80;99.90
51007;DHT22;37034;47.886;-3.904;2023-12-14T05:28:20;10.80;99.90
51007;DHT22;37034;47.886;-3.904;2023-12-14T05:30:46;10.80;99.90
51007;DHT22;37034;47.886;-3.904;2023-12-14T05:33:11;10.80;99.90
51007;DHT22;37034;47.886;-3.904;2023-12-14T05:35:37;10.80;99.90
51007;DHT22;37034;47.886;-3.904;2023-12-14T05:38:02;10.70;99.90
51007;DHT22;37034;47.886;-3.904;2023-12-14T05:40:31;10.80;99.90
51007;DHT22;37034;47.886;-3.904;2023-12-14T05:42:57;10.80;99.90
51007;DHT22;37034;47.886;-3.904;2023-12-14T05:45:23;10.80;99.90
51007;DHT22;37034;47.886;-3.904;2023-12-14T05:47:48;10.90;99.90
51007;DHT22;37034;47.886;-3.904;2023-12-14T05:50:14;10.90;99.90
51007;DHT22;37034;47.886;-3.904;2023-12-14T05:52:40;10.90;99.90
51007;DHT22;37034;47.886;-3.904;2023-12-14T05:55:11;11.00;99.90
51007;DHT22;37034;47.886;-3.904;2023-12-14T05:57:36;10.90;99.90
51007;DHT22;37034;47.886;-3.904;2023-12-14T06:00:04;11.00;99.90
51007;DHT22;37034;47.886;-3.904;2023-12-14T06:02:31;11.00;99.90
51007;DHT22;37034;47.886;-3.904;2023-12-14T06:04:57;11.00;99.90
51007;DHT22;37034;47.886;-3.904;2023-12-14T06:07:23;11.10;99.90
51007;DHT22;37034;47.886;-3.904;2023-12-14T06:09:49;11.10;99.90
51007;DHT22;37034;47.886;-3.904;2023-12-14T06:12:15;11.10;99.90
51007;DHT22;37034;47.886;-3.904;2023-12-14T06:14:40;11.10;99.90
51007;DHT22;37034;47.886;-3.904;2023-12-14T06:17:06;11.20;99.90
51007;DHT22;37034;47.886;-3.904;2023-12-14T06:19:31;11.10;99.90
51007;DHT22;37034;47.886;-3.904;2023-12-14T06:21:58;11.10;99.90
51007;DHT22;37034;47.886;-3.904;2023-12-14T06:24:23;11.10;99.90
51007;DHT22;37034;47.886;-3.904;2023-12-14T06:26:49;11.20;99.90
51007;DHT22;37034;47.886;-3.904;2023-12-14T06:29:15;11.20;99.90
51007;DHT22;37034;47.886;-3.904;2023-12-14T06:31:40;11.20;99.90
51007;DHT22;37034;47.886;-3.904;2023-12-14T06:34:06;11.20;99.90
51007;DHT22;37034;47.886;-3.904;2023-12-14T06:36:33;11.20;99.90
51007;DHT22;37034;47.886;-3.904;2023-12-14T06:39:00;11.20;99.90
51007;DHT22;37034;47.886;-3.904;2023-12-14T06:41:27;11.20;99.90
51007;DHT22;37034;47.886;-3.904;2023-12-14T06:43:53;11.20;99.90
51007;DHT22;37034;47.886;-3.904;2023-12-14T06:46:19;11.20;99.90
51007;DHT22;37034;47.886;-3.904;2023-12-14T06:48:45;11.30;99.90
51007;DHT22;37034;47.886;-3.904;2023-12-14T06:51:11;11.30;99.90
51007;DHT22;37034;47.886;-3.904;2023-12-14T06:53:40;11.30;99.90
51007;DHT22;37034;47.886;-3.904;2023-12-14T06:56:06;11.30;99.90
51007;DHT22;37034;47.886;-3.904;2023-12-14T06:58:35;11.30;99.90
51007;DHT22;37034;47.886;-3.904;2023-12-14T07:01:01;11.30;99.90
51007;DHT22;37034;47.886;-3.904;2023-12-14T07:03:26;11.40;99.90
51007;DHT22;37034;47.886;-3.904;2023-12-14T07:05:52;11.40;99.90
51007;DHT22;37034;47.886;-3.904;2023-12-14T07:08:17;11.40;99.90
51007;DHT22;37034;47.886;-3.904;2023-12-14T07:10:43;11.50;99.90
51007;DHT22;37034;47.886;-3.904;2023-12-14T07:13:09;11.50;99.90
51007;DHT22;37034;47.886;-3.904;2023-12-14T07:15:34;11.50;99.90
51007;DHT22;37034;47.886;-3.904;2023-12-14T07:18:00;11.60;99.90
51007;DHT22;37034;47.886;-3.904;2023-12-14T07:20:27;11.50;99.90
51007;DHT22;37034;47.886;-3.904;2023-12-14T07:22:53;11.50;99.90
51007;DHT22;37034;47.886;-3.904;2023-12-14T07:25:18;11.50;99.90
51007;DHT22;37034;47.886;-3.904;2023-12-14T07:27:44;11.60;99.90
51007;DHT22;37034;47.886;-3.904;2023-12-14T07:30:12;11.60;99.90
51007;DHT22;37034;47.886;-3.904;2023-12-14T07:32:38;11.60;99.90
51007;DHT22;37034;47.886;-3.904;2023-12-14T07:35:04;11.60;99.90
51007;DHT22;37034;47.886;-3.904;2023-12-14T07:37:29;11.60;99.90
51007;DHT22;37034;47.886;-3.904;2023-12-14T07:39:55;11.60;99.90
51007;DHT22;37034;47.886;-3.904;2023-12-14T07:42:21;11.60;99.90
51007;DHT22;37034;47.886;-3.904;2023-12-14T07:44:46;11.60;99.90
51007;DHT22;37034;47.886;-3.904;2023-12-14T07:47:12;11.60;99.90
51007;DHT22;37034;47.886;-3.904;2023-12-14T07:49:38;11.60;99.90
51007;DHT22;37034;47.886;-3.904;2023-12-14T07:52:03;11.60;99.90
51007;DHT22;37034;47.886;-3.904;2023-12-14T07:54:29;11.60;99.90
51007;DHT22;37034;47.886;-3.904;2023-12-14T07:56:55;11.60;99.90
51007;DHT22;37034;47.886;-3.904;2023-12-14T07:59:20;11.60;99.90
51007;DHT22;37034;47.886;-3.904;2023-12-14T08:01:46;11.60;99.90
51007;DHT22;37034;47.886;-3.904;2023-12-14T08:04:12;11.60;99.90
51007;DHT22;37034;47.886;-3.904;2023-12-14T08:06:38;11.60;99.90
51007;DHT22;37034;47.886;-3.904;2023-12-14T08:09:07;11.60;99.90
51007;DHT22;37034;47.886;-3.904;2023-12-14T08:11:33;11.60;99.90
51007;DHT22;37034;47.886;-3.904;2023-12-14T08:13:59;11.60;99.90
51007;DHT22;37034;47.886;-3.904;2023-12-14T08:16:25;11.60;99.90
51007;DHT22;37034;47.886;-3.904;2023-12-14T08:18:51;11.60;99.90
51007;DHT22;37034;47.886;-3.904;2023-12-14T08:21:17;11.60;99.90
51007;DHT22;37034;47.886;-3.904;2023-12-14T08:23:44;11.60;99.90
51007;DHT22;37034;47.886;-3.904;2023-12-14T08:26:09;11.70;99.90
51007;DHT22;37034;47.886;-3.904;2023-12-14T08:28:39;11.70;99.90
51007;DHT22;37034;47.886;-3.904;2023-12-14T08:31:05;11.70;99.90
51007;DHT22;37034;47.886;-3.904;2023-12-14T08:33:31;11.80;99.90
51007;DHT22;37034;47.886;-3.904;2023-12-14T08:35:57;11.80;99.90
51007;DHT22;37034;47.886;-3.904;2023-12-14T08:38:23;11.80;99.90
51007;DHT22;37034;47.886;-3.904;2023-12-14T08:40:50;11.90;99.90
51007;DHT22;37034;47.886;-3.904;2023-12-14T08:43:16;11.90;99.90
51007;DHT22;37034;47.886;-3.904;2023-12-14T08:45:42;12.00;99.90
51007;DHT22;37034;47.886;-3.904;2023-12-14T08:48:08;12.00;99.90
51007;DHT22;37034;47.886;-3.904;2023-12-14T08:50:33;12.10;99.90
51007;DHT22;37034;47.886;-3.904;2023-12-14T08:52:59;12.10;99.90
51007;DHT22;37034;47.886;-3.904;2023-12-14T08:55:28;12.10;99.90
51007;DHT22;37034;47.886;-3.904;2023-12-14T08:57:53;12.10;99.90
51007;DHT22;37034;47.886;-3.904;2023-12-14T09:00:19;12.20;99.90
51007;DHT22;37034;47.886;-3.904;2023-12-14T09:02:45;12.20;99.90
51007;DHT22;37034;47.886;-3.904;2023-12-14T09:05:12;12.20;99.90
51007;DHT22;37034;47.886;-3.904;2023-12-14T09:07:39;12.20;99.90
51007;DHT22;37034;47.886;-3.904;2023-12-14T09:10:05;12.30;99.90
51007;DHT22;37034;47.886;-3.904;2023-12-14T09:12:32;12.30;99.90
51007;DHT22;37034;47.886;-3.904;2023-12-14T09:14:58;12.30;99.90
51007;DHT22;37034;47.886;-3.904;2023-12-14T09:17:24;12.40;99.90
51007;DHT22;37034;47.886;-3.904;2023-12-14T09:19:50;12.40;99.90
51007;DHT22;37034;47.886;-3.904;2023-12-14T09:22:15;12.50;99.90
51007;DHT22;37034;47.886;-3.904;2023-12-14T09:24:41;12.50;99.90
51007;DHT22;37034;47.886;-3.904;2023-12-14T09:27:07;12.60;99.90
51007;DHT22;37034;47.886;-3.904;2023-12-14T09:29:33;12.60;99.90
51007;DHT22;37034;47.886;-3.904;2023-12-14T09:31:59;12.60;99.90
51007;DHT22;37034;47.886;-3.904;2023-12-14T09:34:24;12.60;99.90
51007;DHT22;37034;47.886;-3.904;2023-12-14T09:36:50;12.70;99.90
51007;DHT22;37034;47.886;-3.904;2023-12-14T09:39:15;12.70;99.90
51007;DHT22;37034;47.886;-3.904;2023-12-14T09:41:41;12.80;99.90
51007;DHT22;37034;47.886;-3.904;2023-12-14T09:44:07;12.70;99.90
51007;DHT22;37034;47.886;-3.904;2023-12-14T09:46:37;12.80;99.90
51007;DHT22;37034;47.886;-3.904;2023-12-14T09:49:04;12.90;99.90
51007;DHT22;37034;47.886;-3.904;2023-12-14T09:51:30;12.90;99.90
51007;DHT22;37034;47.886;-3.904;2023-12-14T09:53:56;12.90;99.90
51007;DHT22;37034;47.886;-3.904;2023-12-14T09:56:25;12.90;99.90
51007;DHT22;37034;47.886;-3.904;2023-12-14T09:58:51;13.00;99.90
51007;DHT22;37034;47.886;-3.904;2023-12-14T10:01:23;13.00;99.90
51007;DHT22;37034;47.886;-3.904;2023-12-14T10:03:49;13.10;99.90
51007;DHT22;37034;47.886;-3.904;2023-12-14T10:06:17;13.20;99.90
51007;DHT22;37034;47.886;-3.904;2023-12-14T10:08:54;13.20;99.90
51007;DHT22;37034;47.886;-3.904;2023-12-14T10:11:20;13.20;99.90
51007;DHT22;37034;47.886;-3.904;2023-12-14T10:13:46;13.30;99.90
51007;DHT22;37034;47.886;-3.904;2023-12-14T10:16:12;13.30;99.90
51007;DHT22;37034;47.886;-3.904;2023-12-14T10:18:37;13.40;99.90
51007;DHT22;37034;47.886;-3.904;2023-12-14T10:21:06;13.40;99.90
51007;DHT22;37034;47.886;-3.904;2023-12-14T10:23:33;13.40;99.90
51007;DHT22;37034;47.886;-3.904;2023-12-14T10:26:00;13.50;99.90
51007;DHT22;37034;47.886;-3.904;2023-12-14T10:28:27;13.50;99.90
51007;DHT22;37034;47.886;-3.904;2023-12-14T10:30:52;13.60;99.90
51007;DHT22;37034;47.886;-3.904;2023-12-14T10:33:18;13.60;99.90
51007;DHT22;37034;47.886;-3.904;2023-12-14T10:35:44;13.60;99.90
51007;DHT22;37034;47.886;-3.904;2023-12-14T10:38:12;13.70;99.90
51007;DHT22;37034;47.886;-3.904;2023-12-14T10:40:40;13.80;99.90
51007;DHT22;37034;47.886;-3.904;2023-12-14T10:43:09;13.80;99.90
51007;DHT22;37034;47.886;-3.904;2023-12-14T10:45:36;13.90;99.90
51007;DHT22;37034;47.886;-3.904;2023-12-14T10:48:04;13.90;99.90
51007;DHT22;37034;47.886;-3.904;2023-12-14T10:50:30;13.90;99.90
51007;DHT22;37034;47.886;-3.904;2023-12-14T10:52:59;13.90;99.90
51007;DHT22;37034;47.886;-3.904;2023-12-14T10:55:42;13.90;99.90
51007;DHT22;37034;47.886;-3.904;2023-12-14T10:58:09;14.00;99.90
51007;DHT22;37034;47.886;-3.904;2023-12-14T11:00:35;14.00;99.90
51007;DHT22;37034;47.886;-3.904;2023-12-14T11:03:04;14.00;99.90
51007;DHT22;37034;47.886;-3.904;2023-12-14T11:05:32;14.10;99.90
51007;DHT22;37034;47.886;-3.904;2023-12-14T11:08:03;14.10;99.90
51007;DHT22;37034;47.886;-3.904;2023-12-14T11:10:53;14.10;99.90
51007;DHT22;37034;47.886;-3.904;2023-12-14T11:13:21;14.10;99.90
51007;DHT22;37034;47.886;-3.904;2023-12-14T11:15:50;14.20;99.90
51007;DHT22;37034;47.886;-3.904;2023-12-14T11:18:22;14.20;99.90
51007;DHT22;37034;47.886;-3.904;2023-12-14T11:23:16;14.30;99.90
51007;DHT22;37034;47.886;-3.904;2023-12-14T11:25:48;14.30;99.90
51007;DHT22;37034;47.886;-3.904;2023-12-14T11:28:15;14.30;99.90
51007;DHT22;37034;47.886;-3.904;2023-12-14T11:30:42;14.20;99.90
51007;DHT22;37034;47.886;-3.904;2023-12-14T11:33:08;14.30;99.90
51007;DHT22;37034;47.886;-3.904;2023-12-14T11:35:35;14.20;99.90
51007;DHT22;37034;47.886;-3.904;2023-12-14T11:38:01;14.30;99.90
51007;DHT22;37034;47.886;-3.904;2023-12-14T11:40:30;14.40;99.90
51007;DHT22;37034;47.886;-3.904;2023-12-14T11:43:00;14.40;99.90
51007;DHT22;37034;47.886;-3.904;2023-12-14T11:45:26;14.40;99.90
51007;DHT22;37034;47.886;-3.904;2023-12-14T11:47:52;14.40;99.90
51007;DHT22;37034;47.886;-3.904;2023-12-14T11:50:18;14.40;99.90
51007;DHT22;37034;47.886;-3.904;2023-12-14T11:52:44;14.50;99.90
51007;DHT22;37034;47.886;-3.904;2023-12-14T11:55:14;14.50;99.90
51007;DHT22;37034;47.886;-3.904;2023-12-14T11:57:48;14.60;99.90
51007;DHT22;37034;47.886;-3.904;2023-12-14T12:00:17;14.60;99.90
51007;DHT22;37034;47.886;-3.904;2023-12-14T12:02:43;14.50;99.90
51007;DHT22;37034;47.886;-3.904;2023-12-14T12:05:08;14.60;99.90
51007;DHT22;37034;47.886;-3.904;2023-12-14T12:07:39;14.60;99.90
51007;DHT22;37034;47.886;-3.904;2023-12-14T12:10:09;14.50;99.90
51007;DHT22;37034;47.886;-3.904;2023-12-14T12:12:35;14.60;99.90
51007;DHT22;37034;47.886;-3.904;2023-12-14T12:15:01;14.70;99.90
51007;DHT22;37034;47.886;-3.904;2023-12-14T12:17:27;14.70;99.90
51007;DHT22;37034;47.886;-3.904;2023-12-14T12:19:53;14.70;99.90
51007;DHT22;37034;47.886;-3.904;2023-12-14T12:22:19;14.70;99.90
51007;DHT22;37034;47.886;-3.904;2023-12-14T12:24:44;14.70;99.90
51007;DHT22;37034;47.886;-3.904;2023-12-14T12:27:10;14.70;99.90
51007;DHT22;37034;47.886;-3.904;2023-12-14T12:29:36;14.80;99.90
51007;DHT22;37034;47.886;-3.904;2023-12-14T12:32:01;14.80;99.90
51007;DHT22;37034;47.886;-3.904;2023-12-14T12:34:27;14.90;99.90
51007;DHT22;37034;47.886;-3.904;2023-12-14T12:36:54;14.90;99.90
51007;DHT22;37034;47.886;-3.904;2023-12-14T12:39:19;14.90;99.90
51007;DHT22;37034;47.886;-3.904;2023-12-14T12:41:45;14.90;99.90
51007;DHT22;37034;47.886;-3.904;2023-12-14T12:44:11;15.00;99.90
51007;DHT22;37034;47.886;-3.904;2023-12-14T12:46:36;15.00;99.90
51007;DHT22;37034;47.886;-3.904;2023-12-14T12:49:03;15.00;99.90
51007;DHT22;37034;47.886;-3.904;2023-12-14T12:51:29;15.10;99.90
51007;DHT22;37034;47.886;-3.904;2023-12-14T12:53:57;15.10;99.90
51007;DHT22;37034;47.886;-3.904;2023-12-14T12:56:24;15.10;99.90
51007;DHT22;37034;47.886;-3.904;2023-12-14T12:58:49;15.10;99.90
51007;DHT22;37034;47.886;-3.904;2023-12-14T13:01:17;15.00;99.90
51007;DHT22;37034;47.886;-3.904;2023-12-14T13:03:43;14.90;99.90
51007;DHT22;37034;47.886;-3.904;2023-12-14T13:06:10;14.90;99.90
51007;DHT22;37034;47.886;-3.904;2023-12-14T13:08:36;14.80;99.90
51007;DHT22;37034;47.886;-3.904;2023-12-14T13:11:03;14.90;99.90
51007;DHT22;37034;47.886;-3.904;2023-12-14T13:13:28;14.90;99.90
51007;DHT22;37034;47.886;-3.904;2023-12-14T13:15:55;14.90;99.90
51007;DHT22;37034;47.886;-3.904;2023-12-14T13:18:21;14.90;99.90
51007;DHT22;37034;47.886;-3.904;2023-12-14T13:20:46;14.90;99.90
51007;DHT22;37034;47.886;-3.904;2023-12-14T13:23:12;14.90;99.90
51007;DHT22;37034;47.886;-3.904;2023-12-14T13:25:37;14.90;99.90
51007;DHT22;37034;47.886;-3.904;2023-12-14T13:28:04;14.80;99.90
51007;DHT22;37034;47.886;-3.904;2023-12-14T13:30:30;14.70;99.90
51007;DHT22;37034;47.886;-3.904;2023-12-14T13:32:56;14.90;99.90
51007;DHT22;37034;47.886;-3.904;2023-12-14T13:35:22;15.00;99.90
51007;DHT22;37034;47.886;-3.904;2023-12-14T13:37:50;15.00;99.90
51007;DHT22;37034;47.886;-3.904;2023-12-14T13:40:15;15.10;99.90
51007;DHT22;37034;47.886;-3.904;2023-12-14T13:42:42;15.20;99.90
51007;DHT22;37034;47.886;-3.904;2023-12-14T13:45:08;15.20;99.90
51007;DHT22;37034;47.886;-3.904;2023-12-14T13:47:34;15.30;99.90
51007;DHT22;37034;47.886;-3.904;2023-12-14T13:49:59;15.40;99.90
51007;DHT22;37034;47.886;-3.904;2023-12-14T13:52:25;15.40;99.90
51007;DHT22;37034;47.886;-3.904;2023-12-14T13:54:51;15.40;99.90
51007;DHT22;37034;47.886;-3.904;2023-12-14T13:57:17;15.50;99.90
51007;DHT22;37034;47.886;-3.904;2023-12-14T13:59:42;15.40;99.90
51007;DHT22;37034;47.886;-3.904;2023-12-14T14:02:08;15.40;99.90
51007;DHT22;37034;47.886;-3.904;2023-12-14T14:04:34;15.30;99.90
51007;DHT22;37034;47.886;-3.904;2023-12-14T14:06:59;15.20;99.90
51007;DHT22;37034;47.886;-3.904;2023-12-14T14:09:25;15.10;99.90
51007;DHT22;37034;47.886;-3.904;2023-12-14T14:11:51;15.10;99.90
51007;DHT22;37034;47.886;-3.904;2023-12-14T14:14:16;15.00;99.90
51007;DHT22;37034;47.886;-3.904;2023-12-14T14:16:42;14.90;99.90
51007;DHT22;37034;47.886;-3.904;2023-12-14T14:19:08;14.90;99.90
51007;DHT22;37034;47.886;-3.904;2023-12-14T14:21:33;15.00;99.90
51007;DHT22;37034;47.886;-3.904;2023-12-14T14:23:59;15.10;99.90
51007;DHT22;37034;47.886;-3.904;2023-12-14T14:26:24;15.20;99.90
51007;DHT22;37034;47.886;-3.904;2023-12-14T14:28:50;15.20;99.90
51007;DHT22;37034;47.886;-3.904;2023-12-14T14:31:16;15.30;99.90
51007;DHT22;37034;47.886;-3.904;2023-12-14T14:33:41;15.30;99.90
51007;DHT22;37034;47.886;-3.904;2023-12-14T14:36:07;15.30;99.90
51007;DHT22;37034;47.886;-3.904;2023-12-14T14:38:33;15.30;99.90
51007;DHT22;37034;47.886;-3.904;2023-12-14T14:40:59;15.40;99.90
51007;DHT22;37034;47.886;-3.904;2023-12-14T14:43:25;15.40;99.90
51007;DHT22;37034;47.886;-3.904;2023-12-14T14:45:50;15.40;99.90
51007;DHT22;37034;47.886;-3.904;2023-12-14T14:48:16;15.40;99.90
51007;DHT22;37034;47.886;-3.904;2023-12-14T14:50:42;15.20;99.90
51007;DHT22;37034;47.886;-3.904;2023-12-14T14:53:08;15.10;99.90
51007;DHT22;37034;47.886;-3.904;2023-12-14T14:55:33;15.10;99.90
51007;DHT22;37034;47.886;-3.904;2023-12-14T14:58:00;15.00;99.90
51007;DHT22;37034;47.886;-3.904;2023-12-14T15:00:25;15.00;99.90
51007;DHT22;37034;47.886;-3.904;2023-12-14T15:02:52;14.90;99.90
51007;DHT22;37034;47.886;-3.904;2023-12-14T15:05:17;15.00;99.90
51007;DHT22;37034;47.886;-3.904;2023-12-14T15:07:43;14.90;99.90
51007;DHT22;37034;47.886;-3.904;2023-12-14T15:10:09;14.90;99.90
51007;DHT22;37034;47.886;-3.904;2023-12-14T15:12:34;15.00;99.90
51007;DHT22;37034;47.886;-3.904;2023-12-14T15:15:00;15.10;99.90